Amboy, IN (46911)

2:37 AM EDT on March 30, 2015 (GMT -0400)
Vincent Farms - Amboy, IN | | Change Station
CLOSE
Current Station
Personal Weather Station
Location: Amboy, IN
Elevation: 833 ft
Nearby Weather Stations

Elev 833 ft 40.59 °N, 85.98 °W | Updated 13 minutes ago

Overcast
Overcast
41.3 °F
Feels Like 36 °F
N
9.0
Wind Variable Wind from West
Gusts 13.0 mph

Today
High -- | Low -- °F
--% Chance of Precip.
Yesterday
High -- | Low -- °F
Precip. -- in
7:31 AM 8:06 PM
Waxing Gibbous, 77% visible
Pressure 29.98 in
Visibility 10.0 miles
Clouds Overcast 4900 ft
Windchill 36 °F
Dew Point 37 °F
Humidity 83%
Rainfall 0.00 in
Snow Depth Not available.
UV 0.0 out of 12
Pollen 4.30 out of 12
Air Quality Not available.
Flu Activity Not available.
METAR KGUS 300558Z AUTO 27008KT 10SM OVC049 05/02 A2995 RMK AO2 SLP150 T00490021 10075 20046 52028

More Conditions Fewer Conditions

Pressure 29.98 in
Visibility 10.0 miles
Clouds Overcast 4900 ft
Windchill 36 °F
Dew Point 37 °F
Humidity 83%
Rainfall 0.00 in
Snow Depth Not available.
UV 0.0 out of 12
Pollen 4.30 out of 12
Air Quality Not available.
Flu Activity Not available.
METAR KGUS 300558Z AUTO 27008KT 10SM OVC049 05/02 A2995 RMK AO2 SLP150 T00490021 10075 20046 52028

More Conditions Fewer Conditions

10-Day Weather Forecast

Almanac

Astronomy

Mar. 30, 2015 Rise Set
Actual Time
Civil Twilight
Nautical Twilight
Astronomical Twilight
Moon
Length of Visible Light
Length of Day
Tomorrow will be .
, % of the Moon is Illuminated

Today's Extremes

State Highs State Lows

Community

WunderPhotos

Upload Photos

1,809,439 photos uploaded!

WunderBlogs® & News

Nearby

Air Quality

  Air Quality AQ Index Pollutant
Not available.

Snow Depth

Station Depth Elevation

Earthquake Activity

City Distance Mag. Time & Date
Minimum magnitude displayed is 2.5.

Coastal Water Temperatures

Place Temperature

Stations

Nearby Weather Stations

Station Location Temp. Windchill Dew Point Humidity Wind Precip. Elev Updated Type